Old Crow Airport
CYOC : rendu visible

Aérodrome :











RETROUVEZ-NOUS SUR...

 
LOGIN :

S'inscrire | Disclaimer

   EN    FR    IT 

 









Légende :    VFR   VFR Marginal   IFR   IFR Intensif   IFR Très Intensif
Visi : 
Plafond : 
>= 8 km
>= 3000ft
5 à 8 km
1000 à 3000 ft
1500m à 5 km
500 à 1000 ft
800 à 1500m
200 à 500 ft
< 800m
< 200 ft
Symboles :   Orages  Brouillard  Fortes neiges  Fortes précipitations  Vent > 20 kt






- Altitude de l'aérodrome : 824 ft
- Code IATA : YOC


CYOC - Old Crow

DERNIER METAR :
  • 291700Z 03014G24KT 35SM SCT055 SCT080 BKN110 BKN220 11/01 A3031 RMK SC3AC1AC2CI1 CI TR SLP278

METARs EXPIRÉS :
  • 291600Z 03013G25KT 35SM SCT055 BKN080 BKN110 09/00 A3032 RMK SC3AC2AC2 SLP280
  • 291500Z 04012G19KT 35SM SCT055 SCT080 BKN110 BKN220 08/00 A3033 RMK SC3AC1AC2CI1 CI TR SLP283

TAF TAF CYOC
Valide du 29 à 15h jusqu'au 30 à 01h UTC


291438Z 2915/3001 04015G25KT P6SM FEW050 SCT080 BKN120
FM292100 04015G25KT P6SM FEW080 SCT240 RMK NXT FCST BY 291900Z
FIR CZEG / Amérique du Nord



MET'MAP, la Météo Aéronautique d'un coup d'oeil ! - Copyright ORBIFLY Décembre 2007 - Disclaimer

ORBIFLY MET'MAP TEAM :

Programmation & Développement : Alexandra Zaïnal
Sur une idée originale de : Baudouin d'Aumeries
Assistance à la programmation : Marc-Olivier Méhu
Soutien technique & logistique : Manuel Goepfert

Contact : metmap@orbifly.com




SOURCES & CREDITS :

   NOAA       Earth
Advisory